createdAt,value
2017-07-21T00:00:34.839Z,18.50
2017-07-21T00:03:02.915Z,18.60
2017-07-21T00:05:31.004Z,18.50
2017-07-21T00:07:59.083Z,18.40
2017-07-21T00:10:27.161Z,18.50
2017-07-21T00:12:55.247Z,18.50
2017-07-21T00:15:23.327Z,18.60
2017-07-21T00:17:51.416Z,18.60
2017-07-21T00:20:19.488Z,18.50
2017-07-21T00:22:47.564Z,18.40
2017-07-21T00:25:15.642Z,18.50
2017-07-21T00:27:43.731Z,18.70
2017-07-21T00:30:11.802Z,18.80
2017-07-21T00:32:39.894Z,18.80
2017-07-21T00:35:08.219Z,18.30
2017-07-21T00:37:36.323Z,18.10
2017-07-21T00:40:04.566Z,18.30
2017-07-21T00:42:32.646Z,18.50
2017-07-21T00:45:00.730Z,18.60
2017-07-21T00:47:28.803Z,18.70
2017-07-21T00:49:56.887Z,18.70
2017-07-21T00:52:24.972Z,18.70
2017-07-21T00:54:53.065Z,18.70
2017-07-21T00:57:21.149Z,18.50
2017-07-21T00:59:49.229Z,18.50
2017-07-21T01:02:17.296Z,18.30
2017-07-21T01:04:45.427Z,18.10
2017-07-21T01:07:13.506Z,18.00
2017-07-21T01:09:41.582Z,17.90
2017-07-21T01:12:09.667Z,18.00
2017-07-21T01:14:37.751Z,17.90
2017-07-21T01:17:05.828Z,17.90
2017-07-21T01:19:33.899Z,18.00
2017-07-21T01:22:01.985Z,18.00
2017-07-21T01:24:30.063Z,17.90
2017-07-21T01:26:58.136Z,17.80
2017-07-21T01:29:26.375Z,17.80
2017-07-21T01:31:54.454Z,17.80
2017-07-21T01:34:22.534Z,17.90
2017-07-21T01:36:50.684Z,17.90
2017-07-21T01:39:18.862Z,17.90
2017-07-21T01:41:46.947Z,17.90
2017-07-21T01:44:15.027Z,17.90
2017-07-21T01:46:43.112Z,17.90
2017-07-21T01:49:11.183Z,17.90
2017-07-21T01:51:39.284Z,17.80
2017-07-21T01:54:07.488Z,18.00
2017-07-21T01:56:35.576Z,17.90
2017-07-21T01:59:03.660Z,17.80
2017-07-21T02:01:31.740Z,17.90
2017-07-21T02:03:59.839Z,18.00
2017-07-21T02:06:27.917Z,18.10
2017-07-21T02:08:55.999Z,18.20
2017-07-21T02:11:24.084Z,18.40
2017-07-21T02:13:52.171Z,18.40
2017-07-21T02:16:20.240Z,18.10
2017-07-21T02:18:48.323Z,18.30
2017-07-21T02:21:16.396Z,18.10
2017-07-21T02:23:44.476Z,17.90
2017-07-21T02:26:12.552Z,18.00
2017-07-21T02:28:40.880Z,18.10
2017-07-21T02:31:08.955Z,18.30
2017-07-21T02:33:37.028Z,18.40
2017-07-21T02:36:05.111Z,18.50
2017-07-21T02:38:33.192Z,18.70
2017-07-21T02:41:01.269Z,18.70
2017-07-21T02:43:29.334Z,18.70
2017-07-21T02:45:57.418Z,18.70
2017-07-21T02:48:25.494Z,18.80
2017-07-21T02:50:53.596Z,18.70
2017-07-21T02:53:21.725Z,18.60
2017-07-21T02:55:49.792Z,18.70
2017-07-21T02:58:17.867Z,18.80
2017-07-21T03:00:45.944Z,18.70
2017-07-21T03:03:14.045Z,18.70
2017-07-21T03:05:42.119Z,18.10
2017-07-21T03:08:10.218Z,18.10
2017-07-21T03:10:38.298Z,17.90
2017-07-21T03:13:06.393Z,17.80
2017-07-21T03:15:34.546Z,18.00
2017-07-21T03:18:02.628Z,18.10
2017-07-21T03:20:30.712Z,18.40
2017-07-21T03:23:10.364Z,18.60
2017-07-21T03:25:38.456Z,18.50
2017-07-21T03:28:06.549Z,18.60
2017-07-21T03:30:34.616Z,18.30
2017-07-21T03:33:02.696Z,18.20
2017-07-21T03:35:30.783Z,18.40
2017-07-21T03:37:58.884Z,18.50
2017-07-21T03:40:26.959Z,18.50
2017-07-21T03:42:55.030Z,18.50
2017-07-21T03:45:23.119Z,18.50
2017-07-21T03:47:51.199Z,18.60
2017-07-21T03:50:19.295Z,18.60
2017-07-21T03:52:47.380Z,18.70
2017-07-21T03:55:15.476Z,18.60
2017-07-21T03:57:43.547Z,18.50
2017-07-21T04:00:11.630Z,18.50
2017-07-21T04:02:39.698Z,18.40
2017-07-21T04:05:07.831Z,18.60
2017-07-21T04:07:35.915Z,18.60
2017-07-21T04:10:04.005Z,18.60
2017-07-21T04:12:32.078Z,18.70
2017-07-21T04:15:00.176Z,18.70
2017-07-21T04:17:28.267Z,18.70
2017-07-21T04:19:56.349Z,18.70
2017-07-21T04:22:24.429Z,18.70
2017-07-21T04:24:52.594Z,18.70
2017-07-21T04:27:20.690Z,18.80
2017-07-21T04:29:48.760Z,18.70
2017-07-21T04:32:16.831Z,18.80
2017-07-21T04:34:44.902Z,18.90
2017-07-21T04:37:12.983Z,18.80
2017-07-21T04:39:41.088Z,18.80
2017-07-21T04:42:09.166Z,18.90
2017-07-21T04:44:37.239Z,18.90
2017-07-21T04:47:05.311Z,18.80
2017-07-21T04:49:33.391Z,19.00
2017-07-21T04:52:01.468Z,19.20
2017-07-21T04:54:29.643Z,19.30
2017-07-21T04:56:57.763Z,19.30
2017-07-21T04:59:25.915Z,19.50
2017-07-21T05:01:54.107Z,19.70
2017-07-21T05:04:22.260Z,19.80
2017-07-21T05:06:50.450Z,19.90
2017-07-21T05:09:18.547Z,19.90
2017-07-21T05:11:46.794Z,19.90
2017-07-21T05:14:14.873Z,19.90
2017-07-21T05:16:42.954Z,20.00
2017-07-21T05:19:11.045Z,20.20
2017-07-21T05:21:39.119Z,20.20
2017-07-21T05:24:07.305Z,20.30
2017-07-21T05:26:35.367Z,19.90
2017-07-21T05:29:03.456Z,19.30
2017-07-21T05:31:31.537Z,19.90
2017-07-21T05:33:59.610Z,20.30
2017-07-21T05:36:27.688Z,20.50
2017-07-21T05:38:55.774Z,20.70
2017-07-21T05:41:23.851Z,20.90
2017-07-21T05:43:51.923Z,21.00
2017-07-21T05:46:20.016Z,21.00
2017-07-21T05:48:48.092Z,21.20
2017-07-21T05:51:16.210Z,21.60
2017-07-21T05:53:44.282Z,20.70
2017-07-21T05:56:12.374Z,20.90
2017-07-21T05:58:40.444Z,21.40
2017-07-21T06:01:08.519Z,21.80
2017-07-21T06:03:36.600Z,22.10
2017-07-21T06:06:04.686Z,22.30
2017-07-21T06:08:32.777Z,21.90
2017-07-21T06:11:00.883Z,22.30
2017-07-21T06:13:28.951Z,22.50
2017-07-21T06:15:57.031Z,22.40
2017-07-21T06:18:25.117Z,22.80
2017-07-21T06:20:53.187Z,23.00
2017-07-21T06:23:21.267Z,23.10
2017-07-21T06:25:49.346Z,22.60
2017-07-21T06:28:17.432Z,22.90
2017-07-21T06:30:45.532Z,23.10
2017-07-21T06:33:13.610Z,23.40
2017-07-21T06:35:41.690Z,22.60
2017-07-21T06:38:09.767Z,22.80
2017-07-21T06:40:37.842Z,23.40
2017-07-21T06:43:05.929Z,23.70
2017-07-21T06:45:34.024Z,23.80
2017-07-21T06:48:02.095Z,23.70
2017-07-21T06:50:30.189Z,23.80
2017-07-21T06:52:58.275Z,23.30
2017-07-21T06:55:26.351Z,23.70
2017-07-21T06:57:54.431Z,23.70
2017-07-21T07:00:22.499Z,24.30
2017-07-21T07:02:50.577Z,24.60
2017-07-21T07:05:18.648Z,24.50
2017-07-21T07:07:46.728Z,24.60
2017-07-21T07:10:14.798Z,24.70
2017-07-21T07:12:42.889Z,24.90
2017-07-21T07:15:10.975Z,25.00
2017-07-21T07:17:39.080Z,25.10
2017-07-21T07:20:07.136Z,25.50
2017-07-21T07:22:35.223Z,25.70
2017-07-21T07:25:03.312Z,25.50
2017-07-21T07:27:31.379Z,25.70
2017-07-21T07:29:59.449Z,25.70
2017-07-21T07:32:27.523Z,25.60
2017-07-21T07:34:55.603Z,25.20
2017-07-21T07:37:23.691Z,25.60
2017-07-21T07:39:51.783Z,25.50
2017-07-21T07:42:19.873Z,25.10
2017-07-21T07:44:47.955Z,25.00
2017-07-21T07:47:16.025Z,23.70
2017-07-21T07:49:44.107Z,24.50
2017-07-21T07:52:12.195Z,24.30
2017-07-21T07:54:40.281Z,24.40
2017-07-21T07:57:09.167Z,24.90
2017-07-21T07:59:37.247Z,25.60
2017-07-21T08:02:05.350Z,25.00
2017-07-21T08:04:33.428Z,25.50
2017-07-21T08:07:01.508Z,26.70
2017-07-21T08:09:29.589Z,27.20
2017-07-21T08:11:57.667Z,27.70
2017-07-21T08:14:25.746Z,27.70
2017-07-21T08:16:53.839Z,28.00
2017-07-21T08:19:21.908Z,28.00
2017-07-21T08:21:50.000Z,28.20
2017-07-21T08:24:18.087Z,27.70
2017-07-21T08:26:46.177Z,27.60
2017-07-21T08:29:14.255Z,27.70
2017-07-21T08:31:42.347Z,28.40
2017-07-21T08:34:10.429Z,28.70
2017-07-21T08:36:38.495Z,29.10
2017-07-21T08:39:06.583Z,28.70
2017-07-21T08:41:35.425Z,28.30
2017-07-21T08:44:03.522Z,28.00
2017-07-21T08:46:31.621Z,28.20
2017-07-21T08:48:59.718Z,28.00
2017-07-21T08:51:27.799Z,27.20
2017-07-21T08:53:55.883Z,26.00
2017-07-21T08:56:23.979Z,24.90
2017-07-21T08:58:52.063Z,24.60
2017-07-21T09:01:20.145Z,24.90
2017-07-21T09:03:48.222Z,24.50
2017-07-21T09:06:16.299Z,24.40
2017-07-21T09:08:44.393Z,24.40
2017-07-21T09:11:12.479Z,25.10
2017-07-21T09:13:40.658Z,26.60
2017-07-21T09:16:08.759Z,27.00
2017-07-21T09:18:36.855Z,27.10
2017-07-21T09:21:04.935Z,28.30
2017-07-21T09:23:33.021Z,29.10
2017-07-21T09:26:01.110Z,27.90
2017-07-21T09:28:29.184Z,27.70
2017-07-21T09:30:57.263Z,27.70
2017-07-21T09:33:25.343Z,27.50
2017-07-21T09:35:53.435Z,26.80
2017-07-21T09:38:21.524Z,28.10
2017-07-21T09:40:49.620Z,27.90
2017-07-21T09:43:17.696Z,29.70
2017-07-21T09:45:45.798Z,29.90
2017-07-21T09:48:13.871Z,30.20
2017-07-21T09:50:41.943Z,30.50
2017-07-21T09:53:10.025Z,31.60
2017-07-21T09:55:38.103Z,30.00
2017-07-21T09:58:06.177Z,30.00
2017-07-21T10:00:34.259Z,28.80
2017-07-21T10:03:02.338Z,28.00
2017-07-21T10:05:30.424Z,30.10
2017-07-21T10:07:58.521Z,28.60
2017-07-21T10:10:26.603Z,28.70
2017-07-21T10:12:54.687Z,29.20
2017-07-21T10:15:22.774Z,30.50
2017-07-21T10:17:50.950Z,30.80
2017-07-21T10:20:19.039Z,30.60
2017-07-21T10:22:47.359Z,29.90
2017-07-21T10:25:15.559Z,29.00
2017-07-21T10:27:43.708Z,28.60
2017-07-21T10:30:11.909Z,28.60
2017-07-21T10:32:39.991Z,28.60
2017-07-21T10:35:08.070Z,29.20
2017-07-21T10:37:36.147Z,29.50
2017-07-21T10:40:04.243Z,29.40
2017-07-21T10:42:32.319Z,29.60
2017-07-21T10:45:00.398Z,29.50
2017-07-21T10:47:28.475Z,29.70
2017-07-21T10:49:56.556Z,30.00
2017-07-21T10:52:24.630Z,30.70
2017-07-21T10:54:52.716Z,31.30
2017-07-21T10:57:20.787Z,31.30
2017-07-21T10:59:48.877Z,31.40
2017-07-21T11:02:16.968Z,31.00
2017-07-21T11:04:45.056Z,31.10
2017-07-21T11:07:13.135Z,30.80
2017-07-21T11:09:41.442Z,30.90
2017-07-21T11:12:09.517Z,31.10
2017-07-21T11:14:37.605Z,31.00
2017-07-21T11:17:05.699Z,30.40
2017-07-21T11:19:33.983Z,30.60
2017-07-21T11:22:02.070Z,30.50
2017-07-21T11:24:30.149Z,30.60
2017-07-21T11:26:58.230Z,30.60
2017-07-21T11:29:26.315Z,30.40
2017-07-21T11:31:54.403Z,30.10
2017-07-21T11:34:22.483Z,29.00
2017-07-21T11:36:50.559Z,28.50
2017-07-21T11:39:18.630Z,28.90
2017-07-21T11:41:46.917Z,29.80
2017-07-21T11:44:15.000Z,31.00
2017-07-21T11:46:43.080Z,31.70
2017-07-21T11:49:11.188Z,32.10
2017-07-21T11:51:39.267Z,31.50
2017-07-21T11:54:07.360Z,31.70
2017-07-21T11:56:35.434Z,32.60
2017-07-21T11:59:03.519Z,32.90
2017-07-21T12:01:31.590Z,33.70
2017-07-21T12:03:59.671Z,33.70
2017-07-21T12:06:27.747Z,33.80
2017-07-21T12:08:55.827Z,33.60
2017-07-21T12:11:23.912Z,33.70
2017-07-21T12:13:51.980Z,33.80
2017-07-21T12:16:20.069Z,33.30
2017-07-21T12:18:48.130Z,33.60
2017-07-21T12:21:16.236Z,32.80
2017-07-21T12:23:44.307Z,32.40
2017-07-21T12:26:12.395Z,32.10
2017-07-21T12:28:40.468Z,32.20
2017-07-21T12:31:08.555Z,32.80
2017-07-21T12:33:36.631Z,33.50
2017-07-21T12:36:04.716Z,33.20
2017-07-21T12:38:32.808Z,32.90
2017-07-21T12:41:00.896Z,32.90
2017-07-21T12:43:29.126Z,32.60
2017-07-21T12:45:57.203Z,32.20
2017-07-21T12:48:25.283Z,31.20
2017-07-21T12:50:53.360Z,31.00
2017-07-21T12:53:21.440Z,30.80
2017-07-21T12:55:49.525Z,30.60
2017-07-21T12:58:17.611Z,30.70
2017-07-21T13:00:45.697Z,31.30
2017-07-21T13:03:13.792Z,32.50
2017-07-21T13:05:41.864Z,32.80
2017-07-21T13:08:09.944Z,32.50
2017-07-21T13:10:38.025Z,32.30
2017-07-21T13:13:06.095Z,32.20
2017-07-21T13:15:34.194Z,31.70
2017-07-21T13:18:02.267Z,31.30
2017-07-21T13:20:30.345Z,30.90
2017-07-21T13:22:58.418Z,30.90
2017-07-21T13:25:26.504Z,31.30
2017-07-21T13:27:54.580Z,32.00
2017-07-21T13:30:22.672Z,32.10
2017-07-21T13:32:50.761Z,31.70
2017-07-21T13:35:18.864Z,31.70
2017-07-21T13:37:46.943Z,31.30
2017-07-21T13:40:15.022Z,30.90
2017-07-21T13:42:43.115Z,30.30
2017-07-21T13:45:11.187Z,30.00
2017-07-21T13:47:39.280Z,30.20
2017-07-21T13:50:07.366Z,30.80
2017-07-21T13:52:35.439Z,31.30
2017-07-21T13:55:03.527Z,31.40
2017-07-21T13:57:31.624Z,31.60
2017-07-21T13:59:59.709Z,31.80
2017-07-21T14:02:27.795Z,31.80
2017-07-21T14:04:55.866Z,31.30
2017-07-21T14:07:23.942Z,31.20
2017-07-21T14:09:52.025Z,31.10
2017-07-21T14:12:20.103Z,31.00
2017-07-21T14:14:48.193Z,30.90
2017-07-21T14:17:16.270Z,30.50
2017-07-21T14:19:44.344Z,29.80
2017-07-21T14:22:12.424Z,29.40
2017-07-21T14:24:40.496Z,29.20
2017-07-21T14:27:08.583Z,28.70
2017-07-21T14:29:36.694Z,28.50
2017-07-21T14:32:04.747Z,28.80
2017-07-21T14:34:32.834Z,29.10
2017-07-21T14:37:00.920Z,29.30
2017-07-21T14:39:29.008Z,29.60
2017-07-21T14:41:57.083Z,29.70
2017-07-21T14:44:25.172Z,29.80
2017-07-21T14:46:53.252Z,29.90
2017-07-21T14:49:21.331Z,29.90
2017-07-21T14:51:49.411Z,30.00
2017-07-21T14:54:17.514Z,29.70
2017-07-21T14:56:45.601Z,29.50
2017-07-21T14:59:13.696Z,29.50
2017-07-21T15:01:41.782Z,29.40
2017-07-21T15:04:09.893Z,29.00
2017-07-21T15:06:38.023Z,29.00
2017-07-21T15:09:06.095Z,28.90
2017-07-21T15:11:34.166Z,28.60
2017-07-21T15:14:02.243Z,28.50
2017-07-21T15:16:30.336Z,28.50
2017-07-21T15:18:58.419Z,28.70
2017-07-21T15:21:26.498Z,28.80
2017-07-21T15:23:54.589Z,28.80
2017-07-21T15:26:22.664Z,29.10
2017-07-21T15:28:50.735Z,29.30
2017-07-21T15:31:18.820Z,29.40
2017-07-21T15:33:46.906Z,29.30
2017-07-21T15:36:14.987Z,29.10
2017-07-21T15:38:43.061Z,28.90
2017-07-21T15:41:11.151Z,28.80
2017-07-21T15:43:39.240Z,28.80
2017-07-21T15:46:07.323Z,28.50
2017-07-21T15:48:35.411Z,28.40
2017-07-21T15:51:03.474Z,28.50
2017-07-21T15:53:31.565Z,28.50
2017-07-21T15:55:59.638Z,28.50
2017-07-21T15:58:27.739Z,28.30
2017-07-21T16:00:55.811Z,28.40
2017-07-21T16:03:23.955Z,28.50
2017-07-21T16:05:52.096Z,28.50
2017-07-21T16:08:20.183Z,28.40
2017-07-21T16:10:48.277Z,28.20
2017-07-21T16:13:16.509Z,28.10
2017-07-21T16:15:44.591Z,28.10
2017-07-21T16:18:12.671Z,28.10
2017-07-21T16:20:40.756Z,28.20
2017-07-21T16:23:08.831Z,28.20
2017-07-21T16:25:36.911Z,28.10
2017-07-21T16:28:04.992Z,28.20
2017-07-21T16:30:33.075Z,28.20
2017-07-21T16:33:01.156Z,28.10
2017-07-21T16:35:29.250Z,28.20
2017-07-21T16:37:57.380Z,28.10
2017-07-21T16:40:25.463Z,28.00
2017-07-21T16:42:53.529Z,28.00
2017-07-21T16:45:21.633Z,28.00
2017-07-21T16:47:49.714Z,28.00
2017-07-21T16:50:17.788Z,28.00
2017-07-21T16:52:45.864Z,28.10
2017-07-21T16:55:13.935Z,28.00
2017-07-21T16:57:42.020Z,28.10
2017-07-21T17:00:10.099Z,28.10
2017-07-21T17:02:38.183Z,28.10
2017-07-21T17:05:06.258Z,28.20
2017-07-21T17:07:34.336Z,28.20
2017-07-21T17:10:02.408Z,28.20
2017-07-21T17:12:30.491Z,28.10
2017-07-21T17:14:58.565Z,28.10
2017-07-21T17:17:26.647Z,28.00
2017-07-21T17:19:54.732Z,28.00
2017-07-21T17:22:22.833Z,27.90
2017-07-21T17:24:50.903Z,27.90
2017-07-21T17:27:18.979Z,27.90
2017-07-21T17:29:47.165Z,27.90
2017-07-21T17:32:15.240Z,27.80
2017-07-21T17:34:43.412Z,27.90
2017-07-21T17:37:12.041Z,27.80
2017-07-21T17:39:40.133Z,27.80
2017-07-21T17:42:08.213Z,27.80
2017-07-21T17:44:36.295Z,27.80
2017-07-21T17:47:04.508Z,27.70
2017-07-21T17:49:32.606Z,27.70
2017-07-21T17:52:00.666Z,27.60
2017-07-21T17:54:28.756Z,27.70
2017-07-21T17:56:56.843Z,27.70
2017-07-21T17:59:24.939Z,27.70
2017-07-21T18:02:07.929Z,27.70
2017-07-21T18:04:36.040Z,27.60
2017-07-21T18:07:04.106Z,27.50
2017-07-21T18:09:32.188Z,27.50
2017-07-21T18:12:00.266Z,27.30
2017-07-21T18:14:28.443Z,27.30
2017-07-21T18:16:56.629Z,27.20
2017-07-21T18:19:24.690Z,27.20
2017-07-21T18:21:52.869Z,27.10
2017-07-21T18:24:20.948Z,27.00
2017-07-21T18:26:49.146Z,26.90
2017-07-21T18:29:17.223Z,26.80
2017-07-21T18:31:45.312Z,26.80
2017-07-21T18:34:13.387Z,26.80
2017-07-21T18:36:42.243Z,26.60
2017-07-21T18:39:10.425Z,26.60
2017-07-21T18:41:38.711Z,26.70
2017-07-21T18:44:06.792Z,26.70
2017-07-21T18:46:34.879Z,26.60
2017-07-21T18:49:02.962Z,26.60
2017-07-21T18:51:31.053Z,26.50
2017-07-21T18:56:36.365Z,26.40
2017-07-21T18:59:04.436Z,26.30
2017-07-21T19:01:32.521Z,26.30
2017-07-21T19:04:00.706Z,26.20
2017-07-21T19:06:28.799Z,26.20
2017-07-21T19:08:57.114Z,26.10
2017-07-21T19:11:25.189Z,26.10
2017-07-21T19:13:53.287Z,25.80
2017-07-21T19:16:21.366Z,25.80
2017-07-21T19:18:49.461Z,25.70
2017-07-21T19:21:17.534Z,25.70
2017-07-21T19:23:45.603Z,25.70
2017-07-21T19:26:13.686Z,25.60
2017-07-21T19:28:41.765Z,25.40
2017-07-21T19:31:09.916Z,25.50
2017-07-21T19:33:37.991Z,25.20
2017-07-21T19:36:06.079Z,25.10
2017-07-21T19:38:34.151Z,25.20
2017-07-21T19:41:02.244Z,25.00
2017-07-21T19:43:30.315Z,25.00
2017-07-21T19:45:58.391Z,25.10
2017-07-21T19:48:26.481Z,25.10
2017-07-21T19:50:54.600Z,25.10
2017-07-21T19:53:22.688Z,25.00
2017-07-21T19:55:50.783Z,25.00
2017-07-21T19:58:19.128Z,24.80
2017-07-21T20:00:47.190Z,24.80
2017-07-21T20:03:15.345Z,24.70
2017-07-21T20:05:43.475Z,24.60
2017-07-21T20:08:11.556Z,24.60
2017-07-21T20:10:39.644Z,24.50
2017-07-21T20:13:07.733Z,24.50
2017-07-21T20:15:35.808Z,24.40
2017-07-21T20:18:03.883Z,24.40
2017-07-21T20:20:31.969Z,24.50
2017-07-21T20:23:00.042Z,24.50
2017-07-21T20:25:28.160Z,24.40
2017-07-21T20:27:56.266Z,24.40
2017-07-21T20:30:24.332Z,24.30
2017-07-21T20:32:52.404Z,24.20
2017-07-21T20:35:20.495Z,24.20
2017-07-21T20:37:48.579Z,24.10
2017-07-21T20:40:16.667Z,24.00
2017-07-21T20:42:44.746Z,24.10
2017-07-21T20:45:12.822Z,24.20
2017-07-21T20:47:40.899Z,24.10
2017-07-21T20:50:08.979Z,24.10
2017-07-21T20:52:37.064Z,24.00
2017-07-21T20:55:05.171Z,23.90
2017-07-21T20:57:33.258Z,23.70
2017-07-21T21:00:01.337Z,23.70
2017-07-21T21:02:29.428Z,23.80
2017-07-21T21:04:57.515Z,23.80
2017-07-21T21:07:25.599Z,23.60
2017-07-21T21:09:53.691Z,23.70
2017-07-21T21:12:21.801Z,23.70
2017-07-21T21:14:49.966Z,23.70
2017-07-21T21:17:18.068Z,23.70
2017-07-21T21:19:46.142Z,23.60
2017-07-21T21:22:14.253Z,23.50
2017-07-21T21:24:42.319Z,23.50
2017-07-21T21:27:10.404Z,23.40
2017-07-21T21:29:38.492Z,23.10
2017-07-21T21:32:06.580Z,23.10
2017-07-21T21:34:34.658Z,23.10
2017-07-21T21:37:02.742Z,22.90
2017-07-21T21:39:30.812Z,22.60
2017-07-21T21:41:59.613Z,22.50
2017-07-21T21:44:27.667Z,22.70
2017-07-21T21:46:55.764Z,22.60
2017-07-21T21:49:23.847Z,22.50
2017-07-21T21:51:51.925Z,22.40
2017-07-21T21:54:20.003Z,22.30
2017-07-21T21:56:48.078Z,22.40
2017-07-21T21:59:16.180Z,22.30
2017-07-21T22:01:44.255Z,22.10
2017-07-21T22:04:12.335Z,22.30
2017-07-21T22:06:40.412Z,22.60
2017-07-21T22:09:08.502Z,22.60
2017-07-21T22:11:36.587Z,22.50
2017-07-21T22:14:04.675Z,22.40
2017-07-21T22:16:32.765Z,22.50
2017-07-21T22:19:00.865Z,22.60
2017-07-21T22:21:28.941Z,22.60
2017-07-21T22:23:57.031Z,22.60
2017-07-21T22:26:25.116Z,22.40
2017-07-21T22:28:53.188Z,22.30
2017-07-21T22:31:21.274Z,22.20
2017-07-21T22:33:49.339Z,22.20
2017-07-21T22:36:17.430Z,22.30
2017-07-21T22:38:45.502Z,22.20
2017-07-21T22:41:13.582Z,22.20
2017-07-21T22:43:41.709Z,22.10
2017-07-21T22:46:09.792Z,22.10
2017-07-21T22:48:37.883Z,22.00
2017-07-21T22:51:05.960Z,21.90
2017-07-21T22:53:34.054Z,21.60
2017-07-21T22:56:02.131Z,21.40
2017-07-21T22:58:30.195Z,21.40
2017-07-21T23:00:58.297Z,21.60
2017-07-21T23:03:26.377Z,21.30
2017-07-21T23:05:54.455Z,21.20
2017-07-21T23:08:22.555Z,21.30
2017-07-21T23:10:50.626Z,21.30
2017-07-21T23:13:18.710Z,21.40
2017-07-21T23:15:46.796Z,21.40
2017-07-21T23:18:14.883Z,21.50
2017-07-21T23:20:42.954Z,21.50
2017-07-21T23:23:11.048Z,21.40
2017-07-21T23:25:39.135Z,21.30
2017-07-21T23:28:07.214Z,21.20
2017-07-21T23:30:35.300Z,21.10
2017-07-21T23:33:03.392Z,21.00
2017-07-21T23:35:31.468Z,21.00
2017-07-21T23:37:59.557Z,20.90
2017-07-21T23:40:27.628Z,20.70
2017-07-21T23:42:55.859Z,20.70
2017-07-21T23:45:24.213Z,20.70
2017-07-21T23:47:52.297Z,20.70
2017-07-21T23:50:20.386Z,20.60
2017-07-21T23:52:48.557Z,20.60
2017-07-21T23:55:16.831Z,20.50
2017-07-21T23:57:44.915Z,20.30
